createdAt,value
2018-05-17T00:00:54.587Z,15.79
2018-05-17T00:03:28.710Z,15.77
2018-05-17T00:05:59.224Z,15.72
2018-05-17T00:08:29.571Z,15.72
2018-05-17T00:11:01.316Z,15.49
2018-05-17T00:13:31.736Z,15.41
2018-05-17T00:16:04.894Z,15.27
2018-05-17T00:18:35.720Z,15.01
2018-05-17T00:21:06.110Z,15.22
2018-05-17T00:23:40.134Z,15.17
2018-05-17T00:26:14.026Z,15.07
2018-05-17T00:28:44.781Z,14.98
2018-05-17T00:31:20.769Z,14.93
2018-05-17T00:33:51.066Z,15.03
2018-05-17T00:36:22.190Z,15.17
2018-05-17T00:38:52.575Z,15.20
2018-05-17T00:41:23.552Z,15.10
2018-05-17T00:43:54.269Z,14.86
2018-05-17T00:46:25.494Z,14.99
2018-05-17T00:48:56.093Z,14.91
2018-05-17T00:51:26.424Z,14.86
2018-05-17T00:53:57.327Z,14.63
2018-05-17T00:56:27.943Z,14.54
2018-05-17T00:58:58.173Z,14.36
2018-05-17T01:01:29.794Z,14.30
2018-05-17T01:04:00.450Z,14.28
2018-05-17T01:06:31.022Z,14.28
2018-05-17T01:09:01.737Z,14.27
2018-05-17T01:11:32.017Z,14.40
2018-05-17T01:14:02.736Z,14.23
2018-05-17T01:16:34.165Z,14.24
2018-05-17T01:19:05.156Z,14.35
2018-05-17T01:21:36.397Z,14.36
2018-05-17T01:24:08.166Z,14.19
2018-05-17T01:26:52.588Z,14.06
2018-05-17T01:29:23.904Z,14.05
2018-05-17T01:31:54.825Z,13.89
2018-05-17T01:34:26.066Z,13.89
2018-05-17T01:37:05.101Z,13.96
2018-05-17T01:39:35.355Z,13.96
2018-05-17T01:42:06.002Z,13.92
2018-05-17T01:44:36.680Z,13.83
2018-05-17T01:47:09.574Z,13.76
2018-05-17T01:49:40.103Z,13.35
2018-05-17T01:52:12.271Z,13.75
2018-05-17T01:54:42.722Z,13.86
2018-05-17T01:57:14.262Z,13.79
2018-05-17T01:59:45.090Z,13.78
2018-05-17T02:02:16.820Z,13.90
2018-05-17T02:04:47.721Z,13.96
2018-05-17T02:07:19.764Z,13.89
2018-05-17T02:09:52.387Z,13.83
2018-05-17T02:12:29.855Z,13.76
2018-05-17T02:15:00.274Z,13.79
2018-05-17T02:17:36.944Z,13.84
2018-05-17T02:20:07.677Z,13.83
2018-05-17T02:22:38.299Z,13.90
2018-05-17T02:25:08.720Z,13.76
2018-05-17T02:27:39.563Z,13.67
2018-05-17T02:30:10.032Z,13.64
2018-05-17T02:32:42.644Z,13.54
2018-05-17T02:35:13.255Z,13.51
2018-05-17T02:37:43.478Z,13.50
2018-05-17T02:40:13.824Z,13.54
2018-05-17T02:42:44.100Z,13.55
2018-05-17T02:45:19.050Z,13.52
2018-05-17T02:47:49.332Z,13.43
2018-05-17T02:50:19.964Z,13.40
2018-05-17T02:52:50.222Z,13.39
2018-05-17T02:55:21.542Z,13.38
2018-05-17T02:57:52.164Z,13.45
2018-05-17T03:00:23.888Z,13.33
2018-05-17T03:02:54.185Z,13.57
2018-05-17T03:05:24.485Z,13.56
2018-05-17T03:07:54.745Z,13.38
2018-05-17T03:10:25.421Z,13.35
2018-05-17T03:13:01.608Z,13.38
2018-05-17T03:15:32.608Z,13.37
2018-05-17T03:18:03.292Z,13.44
2018-05-17T03:20:34.077Z,13.38
2018-05-17T03:23:04.467Z,13.19
2018-05-17T03:25:35.403Z,13.10
2018-05-17T03:28:05.773Z,13.10
2018-05-17T03:30:53.691Z,13.22
2018-05-17T03:33:26.442Z,13.22
2018-05-17T03:35:57.048Z,13.29
2018-05-17T03:38:28.491Z,13.25
2018-05-17T03:40:59.234Z,13.24
2018-05-17T03:43:29.529Z,13.28
2018-05-17T03:46:06.392Z,13.30
2018-05-17T03:48:37.448Z,13.30
2018-05-17T03:51:07.681Z,13.35
2018-05-17T03:53:46.712Z,13.31
2018-05-17T03:56:17.940Z,13.35
2018-05-17T03:58:49.662Z,13.34
2018-05-17T04:02:31.875Z,13.29
2018-05-17T04:06:48.371Z,13.25
2018-05-17T04:09:20.145Z,13.47
2018-05-17T04:11:50.648Z,13.45
2018-05-17T04:14:21.236Z,13.60
2018-05-17T04:16:52.331Z,13.65
2018-05-17T04:19:23.709Z,13.60
2018-05-17T04:21:54.196Z,13.59
2018-05-17T04:24:24.449Z,13.60
2018-05-17T04:26:55.071Z,13.78
2018-05-17T04:29:27.387Z,13.85
2018-05-17T04:31:58.577Z,13.78
2018-05-17T04:34:31.478Z,13.63
2018-05-17T04:37:02.061Z,13.51
2018-05-17T04:39:33.408Z,13.54
2018-05-17T04:42:03.798Z,13.70
2018-05-17T04:44:34.184Z,13.84
2018-05-17T04:47:05.304Z,13.89
2018-05-17T04:49:37.610Z,13.79
2018-05-17T04:52:10.455Z,13.78
2018-05-17T04:54:41.789Z,13.79
2018-05-17T04:57:12.136Z,14.00
2018-05-17T04:59:43.929Z,13.99
2018-05-17T05:02:14.612Z,13.97
2018-05-17T05:04:45.476Z,13.93
2018-05-17T05:07:25.410Z,13.83
2018-05-17T05:09:56.685Z,13.78
2018-05-17T05:12:27.461Z,13.78
2018-05-17T05:14:57.995Z,13.95
2018-05-17T05:17:28.705Z,13.93
2018-05-17T05:19:59.913Z,14.06
2018-05-17T05:22:30.464Z,14.12
2018-05-17T05:25:01.869Z,14.08
2018-05-17T05:27:32.917Z,13.97
2018-05-17T05:30:05.922Z,14.05
2018-05-17T05:32:53.973Z,7.16
2018-05-17T05:35:25.342Z,14.18
2018-05-17T05:37:56.377Z,14.17
2018-05-17T05:43:02.207Z,14.35
2018-05-17T05:45:36.866Z,14.25
2018-05-17T05:48:08.425Z,14.19
2018-05-17T05:50:39.779Z,14.24
2018-05-17T05:53:10.722Z,14.23
2018-05-17T05:55:42.210Z,14.25
2018-05-17T05:58:25.406Z,14.27
2018-05-17T06:00:59.548Z,14.26
2018-05-17T06:03:30.830Z,14.25
2018-05-17T06:06:01.527Z,14.25
2018-05-17T06:08:35.295Z,14.23
2018-05-17T06:11:06.875Z,14.19
2018-05-17T06:13:37.399Z,14.25
2018-05-17T06:16:09.939Z,14.39
2018-05-17T06:18:42.353Z,14.38
2018-05-17T06:21:13.856Z,14.55
2018-05-17T06:23:45.398Z,14.54
2018-05-17T06:26:18.834Z,14.62
2018-05-17T06:28:49.362Z,14.72
2018-05-17T06:31:23.015Z,14.88
2018-05-17T06:33:56.715Z,14.80
2018-05-17T06:36:30.094Z,15.14
2018-05-17T06:39:00.637Z,15.40
2018-05-17T06:41:31.386Z,15.51
2018-05-17T06:44:02.199Z,15.38
2018-05-17T06:46:57.264Z,15.41
2018-05-17T06:49:28.715Z,15.48
2018-05-17T06:52:01.052Z,15.18
2018-05-17T06:54:33.737Z,15.50
2018-05-17T06:57:05.893Z,15.56
2018-05-17T06:59:36.684Z,15.91
2018-05-17T07:02:08.400Z,15.80
2018-05-17T07:04:45.945Z,16.20
2018-05-17T07:07:22.010Z,16.73
2018-05-17T07:09:55.361Z,16.80
2018-05-17T07:12:39.205Z,17.07
2018-05-17T07:15:15.722Z,17.62
2018-05-17T07:17:47.198Z,17.40
2018-05-17T07:20:18.090Z,17.23
2018-05-17T07:22:49.194Z,16.84
2018-05-17T07:25:39.715Z,16.53
2018-05-17T07:28:11.523Z,16.71
2018-05-17T07:33:19.540Z,17.61
2018-05-17T07:35:50.936Z,18.12
2018-05-17T07:38:24.622Z,18.61
2018-05-17T07:40:56.932Z,18.94
2018-05-17T07:43:29.127Z,19.36
2018-05-17T07:46:05.519Z,20.26
2018-05-17T07:48:54.860Z,20.85
2018-05-17T07:51:36.199Z,20.19
2018-05-17T07:54:12.570Z,20.42
2018-05-17T07:56:45.604Z,20.82
2018-05-17T07:59:17.704Z,21.11
2018-05-17T08:01:49.241Z,21.30
2018-05-17T08:04:26.580Z,21.66
2018-05-17T08:07:06.390Z,21.58
2018-05-17T08:09:39.296Z,21.25
2018-05-17T08:12:11.498Z,20.91
2018-05-17T08:14:46.686Z,21.04
2018-05-17T08:17:18.600Z,20.96
2018-05-17T08:19:49.237Z,21.21
2018-05-17T08:22:19.809Z,20.92
2018-05-17T08:27:33.216Z,19.72
2018-05-17T08:30:09.721Z,19.66
2018-05-17T08:32:42.996Z,19.27
2018-05-17T08:35:13.419Z,19.70
2018-05-17T08:37:43.921Z,19.64
2018-05-17T08:40:15.470Z,19.53
2018-05-17T08:42:47.199Z,19.35
2018-05-17T08:45:36.841Z,19.36
2018-05-17T08:51:46.048Z,19.72
2018-05-17T08:54:17.434Z,19.87
2018-05-17T08:56:50.061Z,19.90
2018-05-17T08:59:20.392Z,19.90
2018-05-17T09:04:34.312Z,19.61
2018-05-17T09:07:08.854Z,19.87
2018-05-17T09:09:59.571Z,19.75
2018-05-17T09:12:52.383Z,19.59
2018-05-17T09:15:35.782Z,20.63
2018-05-17T09:18:12.860Z,20.64
2018-05-17T09:20:46.320Z,20.49
2018-05-17T09:23:23.632Z,20.62
2018-05-17T09:25:56.498Z,21.00
2018-05-17T09:28:31.583Z,21.43
2018-05-17T09:31:04.413Z,21.39
2018-05-17T09:33:35.019Z,21.37
2018-05-17T09:36:07.203Z,21.53
2018-05-17T09:38:42.090Z,21.45
2018-05-17T09:41:14.683Z,21.57
2018-05-17T09:43:45.459Z,21.55
2018-05-17T09:46:16.086Z,22.27
2018-05-17T09:49:00.528Z,22.08
2018-05-17T09:51:32.838Z,22.03
2018-05-17T09:54:05.794Z,21.80
2018-05-17T09:56:37.115Z,21.94
2018-05-17T09:59:09.186Z,22.32
2018-05-17T10:01:41.684Z,22.13
2018-05-17T10:04:14.422Z,22.38
2018-05-17T10:06:50.342Z,22.63
2018-05-17T10:09:26.257Z,22.95
2018-05-17T10:12:38.414Z,22.95
2018-05-17T10:15:14.265Z,23.46
2018-05-17T10:17:51.060Z,23.07
2018-05-17T10:20:32.385Z,22.95
2018-05-17T10:23:20.663Z,23.07
2018-05-17T10:25:56.236Z,22.96
2018-05-17T10:28:35.736Z,22.93
2018-05-17T10:31:20.395Z,23.15
2018-05-17T10:33:54.283Z,23.30
2018-05-17T10:36:25.701Z,22.75
2018-05-17T10:39:01.064Z,22.67
2018-05-17T10:41:35.559Z,23.26
2018-05-17T10:44:12.688Z,23.14
2018-05-17T10:46:45.831Z,23.09
2018-05-17T10:49:17.060Z,23.03
2018-05-17T10:51:47.652Z,23.28
2018-05-17T10:54:19.013Z,23.55
2018-05-17T10:56:49.857Z,23.80
2018-05-17T10:59:22.535Z,23.23
2018-05-17T11:01:58.835Z,23.47
2018-05-17T11:04:35.976Z,23.82
2018-05-17T11:07:13.485Z,24.04
2018-05-17T11:09:44.166Z,24.38
2018-05-17T11:12:16.517Z,24.02
2018-05-17T11:14:47.766Z,23.98
2018-05-17T11:17:19.482Z,24.40
2018-05-17T11:19:50.833Z,24.56
2018-05-17T11:22:28.321Z,25.03
2018-05-17T11:25:00.113Z,25.14
2018-05-17T11:27:30.953Z,25.40
2018-05-17T11:30:07.730Z,24.82
2018-05-17T11:32:38.967Z,25.07
2018-05-17T11:35:25.356Z,25.30
2018-05-17T11:38:25.805Z,25.17
2018-05-17T11:41:05.784Z,24.70
2018-05-17T11:43:38.567Z,24.66
2018-05-17T11:46:23.221Z,24.56
2018-05-17T11:49:15.455Z,24.30
2018-05-17T11:55:20.269Z,24.71
2018-05-17T11:58:02.634Z,24.81
2018-05-17T12:00:46.729Z,24.50
2018-05-17T12:03:17.843Z,25.24
2018-05-17T12:05:49.853Z,25.57
2018-05-17T12:08:22.793Z,25.23
2018-05-17T12:10:57.677Z,25.17
2018-05-17T12:13:36.333Z,25.48
2018-05-17T12:16:24.876Z,25.63
2018-05-17T12:18:58.333Z,25.64
2018-05-17T12:26:10.395Z,25.81
2018-05-17T12:28:41.134Z,25.46
2018-05-17T12:31:14.612Z,25.65
2018-05-17T12:33:48.345Z,25.98
2018-05-17T12:36:27.372Z,26.46
2018-05-17T12:39:00.064Z,25.74
2018-05-17T12:41:39.024Z,26.00
2018-05-17T12:44:11.186Z,26.81
2018-05-17T12:46:48.367Z,27.23
2018-05-17T12:49:45.553Z,27.41
2018-05-17T12:52:18.396Z,26.92
2018-05-17T12:54:53.871Z,26.74
2018-05-17T12:57:24.389Z,26.53
2018-05-17T12:59:59.518Z,25.96
2018-05-17T13:02:33.693Z,25.89
2018-05-17T13:05:06.909Z,26.32
2018-05-17T13:07:40.133Z,26.56
2018-05-17T13:10:21.342Z,26.55
2018-05-17T13:13:01.209Z,26.48
2018-05-17T13:15:43.252Z,26.97
2018-05-17T13:18:16.393Z,27.10
2018-05-17T13:20:49.349Z,27.03
2018-05-17T13:23:22.034Z,26.71
2018-05-17T13:25:55.598Z,26.49
2018-05-17T13:28:30.814Z,26.49
2018-05-17T13:31:01.861Z,26.15
2018-05-17T13:33:35.374Z,26.15
2018-05-17T13:36:12.262Z,25.97
2018-05-17T13:38:45.514Z,25.79
2018-05-17T13:41:23.333Z,25.38
2018-05-17T13:43:54.764Z,25.55
2018-05-17T13:46:26.002Z,26.11
2018-05-17T13:48:57.833Z,26.54
2018-05-17T13:51:29.042Z,27.01
2018-05-17T13:53:59.451Z,26.63
2018-05-17T13:56:30.686Z,26.01
2018-05-17T13:59:07.555Z,25.70
2018-05-17T14:01:39.861Z,25.39
2018-05-17T14:05:34.194Z,25.65
2018-05-17T14:08:06.952Z,25.83
2018-05-17T14:10:38.403Z,26.01
2018-05-17T14:13:18.037Z,25.85
2018-05-17T14:15:51.026Z,25.68
2018-05-17T14:18:30.844Z,26.11
2018-05-17T14:21:08.078Z,26.18
2018-05-17T14:23:41.505Z,25.99
2018-05-17T14:26:27.961Z,26.13
2018-05-17T14:29:02.643Z,25.57
2018-05-17T14:31:33.715Z,25.75
2018-05-17T14:34:24.869Z,25.55
2018-05-17T14:36:55.411Z,24.96
2018-05-17T14:39:27.841Z,24.81
2018-05-17T14:42:08.124Z,25.19
2018-05-17T14:44:42.672Z,25.43
2018-05-17T14:47:24.808Z,25.17
2018-05-17T14:50:03.167Z,24.90
2018-05-17T14:52:54.827Z,25.46
2018-05-17T14:55:31.120Z,25.18
2018-05-17T14:58:07.889Z,25.35
2018-05-17T15:00:48.994Z,25.34
2018-05-17T15:03:26.644Z,25.19
2018-05-17T15:06:05.302Z,25.13
2018-05-17T15:08:38.141Z,25.38
2018-05-17T15:11:14.757Z,25.25
2018-05-17T15:13:45.094Z,25.27
2018-05-17T15:16:25.341Z,25.21
2018-05-17T15:18:57.404Z,25.42
2018-05-17T15:21:28.511Z,25.41
2018-05-17T15:24:00.471Z,24.91
2018-05-17T15:26:35.213Z,24.75
2018-05-17T15:29:07.934Z,24.04
2018-05-17T15:31:51.091Z,23.53
2018-05-17T15:34:25.464Z,23.46
2018-05-17T15:37:25.662Z,23.23
2018-05-17T15:40:05.510Z,23.12
2018-05-17T15:42:45.581Z,22.94
2018-05-17T15:45:26.876Z,22.86
2018-05-17T15:48:00.137Z,22.96
2018-05-17T15:50:31.834Z,22.84
2018-05-17T15:53:03.952Z,22.64
2018-05-17T15:55:37.393Z,22.75
2018-05-17T15:58:07.920Z,22.61
2018-05-17T16:00:41.110Z,22.60
2018-05-17T16:03:15.378Z,22.55
2018-05-17T16:05:47.966Z,22.52
2018-05-17T16:08:21.613Z,22.37
2018-05-17T16:11:10.433Z,22.56
2018-05-17T16:13:43.106Z,22.53
2018-05-17T16:16:18.280Z,22.33
2018-05-17T16:18:50.887Z,22.51
2018-05-17T16:21:25.173Z,22.25
2018-05-17T16:23:57.171Z,22.21
2018-05-17T16:26:44.841Z,22.21
2018-05-17T16:29:49.973Z,21.89
2018-05-17T16:32:34.338Z,21.71
2018-05-17T16:35:05.369Z,21.64
2018-05-17T16:37:38.506Z,21.71
2018-05-17T16:40:12.654Z,21.56
2018-05-17T16:42:49.727Z,21.68
2018-05-17T16:45:25.980Z,21.61
2018-05-17T16:48:08.806Z,21.50
2018-05-17T16:50:52.465Z,21.34
2018-05-17T16:53:58.576Z,21.28
2018-05-17T16:56:40.723Z,21.42
2018-05-17T16:59:39.564Z,21.31
2018-05-17T17:02:18.879Z,21.29
2018-05-17T17:04:51.364Z,21.16
2018-05-17T17:07:27.287Z,21.20
2018-05-17T17:10:20.933Z,21.03
2018-05-17T17:12:53.883Z,21.01
2018-05-17T17:18:10.492Z,21.09
2018-05-17T17:20:52.200Z,20.99
2018-05-17T17:23:27.782Z,21.08
2018-05-17T17:26:08.990Z,20.90
2018-05-17T17:28:48.140Z,20.79
2018-05-17T17:31:27.708Z,20.86
2018-05-17T17:34:01.184Z,20.61
2018-05-17T17:36:32.649Z,20.44
2018-05-17T17:39:04.757Z,20.37
2018-05-17T17:41:38.830Z,20.34
2018-05-17T17:44:11.135Z,20.34
2018-05-17T17:46:41.771Z,20.33
2018-05-17T17:49:14.797Z,20.25
2018-05-17T17:51:46.567Z,20.09
2018-05-17T17:54:23.927Z,20.14
2018-05-17T17:56:55.585Z,20.17
2018-05-17T17:59:47.353Z,20.09
2018-05-17T18:02:33.466Z,20.08
2018-05-17T18:05:06.270Z,19.98
2018-05-17T18:08:12.423Z,19.98
2018-05-17T18:10:44.503Z,20.09
2018-05-17T18:13:36.846Z,19.98
2018-05-17T18:16:11.083Z,19.80
2018-05-17T18:18:48.860Z,19.54
2018-05-17T18:21:20.730Z,19.56
2018-05-17T18:23:54.059Z,19.58
2018-05-17T18:26:28.192Z,19.58
2018-05-17T18:28:58.816Z,19.47
2018-05-17T18:31:54.980Z,19.21
2018-05-17T18:34:28.822Z,19.18
2018-05-17T18:36:59.326Z,19.23
2018-05-17T18:39:31.074Z,19.02
2018-05-17T18:42:05.889Z,18.84
2018-05-17T18:44:37.003Z,18.74
2018-05-17T18:47:08.185Z,18.81
2018-05-17T18:49:38.735Z,18.91
2018-05-17T18:52:09.298Z,18.83
2018-05-17T18:54:39.857Z,18.65
2018-05-17T18:57:10.873Z,18.59
2018-05-17T18:59:43.145Z,18.51
2018-05-17T19:02:20.753Z,18.49
2018-05-17T19:04:51.913Z,18.41
2018-05-17T19:07:24.008Z,18.24
2018-05-17T19:09:57.871Z,18.18
2018-05-17T19:12:29.962Z,18.26
2018-05-17T19:15:00.515Z,18.25
2018-05-17T19:17:33.399Z,18.12
2018-05-17T19:20:09.938Z,18.03
2018-05-17T19:22:42.058Z,17.58
2018-05-17T19:25:12.970Z,18.03
2018-05-17T19:27:46.111Z,17.95
2018-05-17T19:30:32.478Z,17.98
2018-05-17T19:33:04.596Z,17.91
2018-05-17T19:35:35.797Z,17.82
2018-05-17T19:38:06.391Z,17.76
2018-05-17T19:40:39.712Z,17.74
2018-05-17T19:43:13.752Z,17.67
2018-05-17T19:45:45.231Z,17.62
2018-05-17T19:48:15.853Z,17.39
2018-05-17T19:50:46.694Z,17.36
2018-05-17T19:53:18.960Z,17.26
2018-05-17T19:55:49.669Z,17.22
2018-05-17T19:58:20.818Z,17.18
2018-05-17T20:00:51.307Z,17.05
2018-05-17T20:03:22.698Z,16.87
2018-05-17T20:06:04.894Z,16.75
2018-05-17T20:08:35.851Z,16.53
2018-05-17T20:11:07.384Z,16.42
2018-05-17T20:13:38.844Z,16.43
2018-05-17T20:16:09.918Z,16.37
2018-05-17T20:18:41.613Z,16.44
2018-05-17T20:21:12.427Z,16.44
2018-05-17T20:23:43.211Z,16.43
2018-05-17T20:26:13.578Z,16.39
2018-05-17T20:28:45.606Z,16.31
2018-05-17T20:31:17.001Z,16.24
2018-05-17T20:33:47.710Z,16.34
2018-05-17T20:36:34.017Z,16.21
2018-05-17T20:39:07.669Z,16.14
2018-05-17T20:41:38.532Z,16.11
2018-05-17T20:44:09.621Z,16.02
2018-05-17T20:46:42.869Z,15.99
2018-05-17T20:49:14.402Z,16.10
2018-05-17T20:51:45.519Z,15.99
2018-05-17T20:54:15.979Z,16.19
2018-05-17T20:56:46.903Z,16.06
2018-05-17T20:59:18.316Z,16.06
2018-05-17T21:01:49.064Z,15.93
2018-05-17T21:04:22.575Z,15.88
2018-05-17T21:06:53.262Z,15.93
2018-05-17T21:09:25.708Z,15.64
2018-05-17T21:12:00.323Z,15.40
2018-05-17T21:14:32.283Z,15.23
2018-05-17T21:17:02.953Z,15.18
2018-05-17T21:19:36.711Z,15.15
2018-05-17T21:22:07.578Z,15.10
2018-05-17T21:24:38.833Z,15.02
2018-05-17T21:27:12.558Z,15.01
2018-05-17T21:29:44.104Z,15.04
2018-05-17T21:32:21.743Z,14.93
2018-05-17T21:34:58.831Z,14.95
2018-05-17T21:37:32.505Z,14.87
2018-05-17T21:40:03.393Z,14.79
2018-05-17T21:42:34.488Z,14.72
2018-05-17T21:45:19.072Z,14.68
2018-05-17T21:47:50.259Z,14.61
2018-05-17T21:50:22.760Z,14.67
2018-05-17T21:52:53.442Z,14.70
2018-05-17T21:55:26.228Z,14.83
2018-05-17T21:57:59.491Z,15.04
2018-05-17T22:00:36.148Z,15.08
2018-05-17T22:03:08.055Z,15.04
2018-05-17T22:05:39.689Z,15.05
2018-05-17T22:08:14.634Z,15.04
2018-05-17T22:10:47.023Z,15.21
2018-05-17T22:13:18.485Z,15.25
2018-05-17T22:15:54.192Z,15.36
2018-05-17T22:18:26.958Z,15.38
2018-05-17T22:20:58.013Z,15.16
2018-05-17T22:23:28.863Z,15.09
2018-05-17T22:25:59.764Z,14.97
2018-05-17T22:28:30.368Z,14.89
2018-05-17T22:31:01.521Z,14.84
2018-05-17T22:33:32.491Z,14.83
2018-05-17T22:36:08.826Z,14.92
2018-05-17T22:38:39.086Z,15.01
2018-05-17T22:41:09.599Z,14.94
2018-05-17T22:43:50.830Z,14.89
2018-05-17T22:46:22.309Z,14.77
2018-05-17T22:48:56.379Z,14.97
2018-05-17T22:51:32.624Z,14.88
2018-05-17T22:54:04.465Z,14.96
2018-05-17T22:56:48.727Z,15.02
2018-05-17T22:59:19.361Z,14.97
2018-05-17T23:02:04.891Z,14.85
2018-05-17T23:04:36.486Z,14.97
2018-05-17T23:07:07.306Z,14.96
2018-05-17T23:09:41.302Z,15.09
2018-05-17T23:12:12.551Z,15.21
2018-05-17T23:14:55.211Z,14.99
2018-05-17T23:17:27.743Z,14.84
2018-05-17T23:19:58.512Z,14.81
2018-05-17T23:22:37.296Z,14.78
2018-05-17T23:25:12.285Z,14.68
2018-05-17T23:27:44.126Z,14.59
2018-05-17T23:30:17.223Z,14.58
2018-05-17T23:32:47.625Z,14.59
2018-05-17T23:35:18.972Z,14.45
2018-05-17T23:37:51.015Z,14.39
2018-05-17T23:40:30.995Z,14.36
2018-05-17T23:43:05.010Z,14.36
2018-05-17T23:45:36.115Z,14.41
2018-05-17T23:48:08.069Z,14.37
2018-05-17T23:50:43.533Z,14.30
2018-05-17T23:53:14.526Z,14.23
2018-05-17T23:55:45.781Z,14.37
2018-05-17T23:58:16.379Z,14.18
